sensor_id;sensor_type;location;lat;lon;timestamp;P1;durP1;ratioP1;P2;durP2;ratioP2
8964;SDS011;4517;49.020;12.066;2023-12-22T00:00:04;18.50;;;17.50;;
8964;SDS011;4517;49.020;12.066;2023-12-22T00:02:30;18.30;;;16.87;;
8964;SDS011;4517;49.020;12.066;2023-12-22T00:04:56;17.33;;;16.23;;
8964;SDS011;4517;49.020;12.066;2023-12-22T00:07:22;17.77;;;16.57;;
8964;SDS011;4517;49.020;12.066;2023-12-22T00:09:48;17.47;;;16.37;;
8964;SDS011;4517;49.020;12.066;2023-12-22T00:12:14;16.20;;;15.27;;
8964;SDS011;4517;49.020;12.066;2023-12-22T00:14:40;15.27;;;14.37;;
8964;SDS011;4517;49.020;12.066;2023-12-22T00:17:06;15.90;;;14.33;;
8964;SDS011;4517;49.020;12.066;2023-12-22T00:19:32;16.30;;;13.70;;
8964;SDS011;4517;49.020;12.066;2023-12-22T00:21:58;13.87;;;13.07;;
8964;SDS011;4517;49.020;12.066;2023-12-22T00:24:24;14.47;;;13.37;;
8964;SDS011;4517;49.020;12.066;2023-12-22T00:26:50;15.37;;;14.17;;
8964;SDS011;4517;49.020;12.066;2023-12-22T00:29:16;14.33;;;13.43;;
8964;SDS011;4517;49.020;12.066;2023-12-22T00:31:42;13.43;;;12.20;;
8964;SDS011;4517;49.020;12.066;2023-12-22T00:34:08;14.33;;;13.03;;
8964;SDS011;4517;49.020;12.066;2023-12-22T00:36:34;14.27;;;13.17;;
8964;SDS011;4517;49.020;12.066;2023-12-22T00:39:00;14.37;;;13.10;;
8964;SDS011;4517;49.020;12.066;2023-12-22T00:41:26;13.40;;;12.50;;
8964;SDS011;4517;49.020;12.066;2023-12-22T00:43:52;12.63;;;11.90;;
8964;SDS011;4517;49.020;12.066;2023-12-22T00:46:18;13.10;;;12.30;;
8964;SDS011;4517;49.020;12.066;2023-12-22T00:48:45;14.23;;;13.10;;
8964;SDS011;4517;49.020;12.066;2023-12-22T00:51:11;13.87;;;12.87;;
8964;SDS011;4517;49.020;12.066;2023-12-22T00:53:37;13.27;;;12.47;;
8964;SDS011;4517;49.020;12.066;2023-12-22T00:56:02;13.67;;;12.57;;
8964;SDS011;4517;49.020;12.066;2023-12-22T00:58:29;14.20;;;13.00;;
8964;SDS011;4517;49.020;12.066;2023-12-22T01:00:55;13.60;;;12.57;;
8964;SDS011;4517;49.020;12.066;2023-12-22T01:03:21;15.40;;;13.57;;
8964;SDS011;4517;49.020;12.066;2023-12-22T01:05:47;14.10;;;13.00;;
8964;SDS011;4517;49.020;12.066;2023-12-22T01:08:13;14.00;;;12.97;;
8964;SDS011;4517;49.020;12.066;2023-12-22T01:10:39;12.90;;;12.13;;
8964;SDS011;4517;49.020;12.066;2023-12-22T01:13:05;13.73;;;12.73;;
8964;SDS011;4517;49.020;12.066;2023-12-22T01:15:31;13.90;;;12.63;;
8964;SDS011;4517;49.020;12.066;2023-12-22T01:17:57;14.70;;;13.73;;
8964;SDS011;4517;49.020;12.066;2023-12-22T01:20:23;14.10;;;13.17;;
8964;SDS011;4517;49.020;12.066;2023-12-22T01:22:49;14.70;;;13.57;;
8964;SDS011;4517;49.020;12.066;2023-12-22T01:25:15;14.20;;;13.30;;
8964;SDS011;4517;49.020;12.066;2023-12-22T01:27:41;14.77;;;13.43;;
8964;SDS011;4517;49.020;12.066;2023-12-22T01:30:07;14.30;;;13.40;;
8964;SDS011;4517;49.020;12.066;2023-12-22T01:32:33;14.43;;;13.43;;
8964;SDS011;4517;49.020;12.066;2023-12-22T01:35:01;14.60;;;13.70;;
8964;SDS011;4517;49.020;12.066;2023-12-22T01:37:31;15.20;;;13.80;;
8964;SDS011;4517;49.020;12.066;2023-12-22T01:39:57;14.20;;;13.20;;
8964;SDS011;4517;49.020;12.066;2023-12-22T01:42:23;15.73;;;14.33;;
8964;SDS011;4517;49.020;12.066;2023-12-22T01:44:49;15.13;;;13.60;;
8964;SDS011;4517;49.020;12.066;2023-12-22T01:47:16;15.83;;;14.30;;
8964;SDS011;4517;49.020;12.066;2023-12-22T01:49:42;15.10;;;13.83;;
8964;SDS011;4517;49.020;12.066;2023-12-22T01:52:08;18.43;;;13.77;;
8964;SDS011;4517;49.020;12.066;2023-12-22T01:54:34;14.73;;;13.47;;
8964;SDS011;4517;49.020;12.066;2023-12-22T01:57:00;16.10;;;13.70;;
8964;SDS011;4517;49.020;12.066;2023-12-22T01:59:27;14.70;;;13.50;;
8964;SDS011;4517;49.020;12.066;2023-12-22T02:01:55;15.40;;;14.33;;
8964;SDS011;4517;49.020;12.066;2023-12-22T02:04:21;15.73;;;14.23;;
8964;SDS011;4517;49.020;12.066;2023-12-22T02:06:48;15.80;;;14.40;;
8964;SDS011;4517;49.020;12.066;2023-12-22T02:09:14;14.93;;;13.90;;
8964;SDS011;4517;49.020;12.066;2023-12-22T02:11:40;15.57;;;14.50;;
8964;SDS011;4517;49.020;12.066;2023-12-22T02:14:06;15.53;;;14.30;;
8964;SDS011;4517;49.020;12.066;2023-12-22T02:16:35;16.00;;;14.50;;
8964;SDS011;4517;49.020;12.066;2023-12-22T02:19:15;18.93;;;14.23;;
8964;SDS011;4517;49.020;12.066;2023-12-22T02:21:59;15.23;;;14.10;;
8964;SDS011;4517;49.020;12.066;2023-12-22T02:24:26;15.07;;;14.13;;
8964;SDS011;4517;49.020;12.066;2023-12-22T02:26:52;15.17;;;13.87;;
8964;SDS011;4517;49.020;12.066;2023-12-22T02:29:20;14.40;;;13.33;;
8964;SDS011;4517;49.020;12.066;2023-12-22T02:31:47;18.73;;;14.43;;
8964;SDS011;4517;49.020;12.066;2023-12-22T02:34:17;15.07;;;13.70;;
8964;SDS011;4517;49.020;12.066;2023-12-22T02:36:44;16.40;;;15.20;;
8964;SDS011;4517;49.020;12.066;2023-12-22T02:39:10;14.63;;;13.70;;
8964;SDS011;4517;49.020;12.066;2023-12-22T02:41:37;15.80;;;14.60;;
8964;SDS011;4517;49.020;12.066;2023-12-22T02:44:03;15.80;;;14.63;;
8964;SDS011;4517;49.020;12.066;2023-12-22T02:46:29;15.90;;;14.47;;
8964;SDS011;4517;49.020;12.066;2023-12-22T02:48:55;18.33;;;13.60;;
8964;SDS011;4517;49.020;12.066;2023-12-22T02:51:21;14.93;;;13.67;;
8964;SDS011;4517;49.020;12.066;2023-12-22T02:53:47;14.73;;;13.60;;
8964;SDS011;4517;49.020;12.066;2023-12-22T02:56:13;15.13;;;14.13;;
8964;SDS011;4517;49.020;12.066;2023-12-22T02:58:39;15.20;;;14.10;;
8964;SDS011;4517;49.020;12.066;2023-12-22T03:01:05;14.60;;;13.47;;
8964;SDS011;4517;49.020;12.066;2023-12-22T03:03:31;14.00;;;13.20;;
8964;SDS011;4517;49.020;12.066;2023-12-22T03:05:57;14.33;;;13.43;;
8964;SDS011;4517;49.020;12.066;2023-12-22T03:08:23;15.40;;;13.83;;
8964;SDS011;4517;49.020;12.066;2023-12-22T03:10:49;14.40;;;13.30;;
8964;SDS011;4517;49.020;12.066;2023-12-22T03:13:15;14.63;;;13.50;;
8964;SDS011;4517;49.020;12.066;2023-12-22T03:15:41;14.80;;;13.60;;
8964;SDS011;4517;49.020;12.066;2023-12-22T03:18:07;16.90;;;14.40;;
8964;SDS011;4517;49.020;12.066;2023-12-22T03:20:33;14.83;;;13.93;;
8964;SDS011;4517;49.020;12.066;2023-12-22T03:22:59;15.83;;;14.83;;
8964;SDS011;4517;49.020;12.066;2023-12-22T03:25:25;16.20;;;15.10;;
8964;SDS011;4517;49.020;12.066;2023-12-22T03:27:51;16.87;;;15.70;;
8964;SDS011;4517;49.020;12.066;2023-12-22T03:30:16;17.20;;;15.93;;
8964;SDS011;4517;49.020;12.066;2023-12-22T03:32:42;17.27;;;16.07;;
8964;SDS011;4517;49.020;12.066;2023-12-22T03:35:08;16.83;;;15.83;;
8964;SDS011;4517;49.020;12.066;2023-12-22T03:37:34;19.40;;;17.70;;
8964;SDS011;4517;49.020;12.066;2023-12-22T03:40:00;18.47;;;17.37;;
8964;SDS011;4517;49.020;12.066;2023-12-22T03:42:26;20.40;;;18.60;;
8964;SDS011;4517;49.020;12.066;2023-12-22T03:44:52;20.30;;;18.70;;
8964;SDS011;4517;49.020;12.066;2023-12-22T03:47:18;22.53;;;20.90;;
8964;SDS011;4517;49.020;12.066;2023-12-22T03:49:44;24.47;;;22.67;;
8964;SDS011;4517;49.020;12.066;2023-12-22T03:52:10;25.70;;;23.90;;
8964;SDS011;4517;49.020;12.066;2023-12-22T03:54:36;24.87;;;22.93;;
8964;SDS011;4517;49.020;12.066;2023-12-22T03:57:02;24.87;;;22.50;;
8964;SDS011;4517;49.020;12.066;2023-12-22T03:59:28;25.67;;;23.63;;
8964;SDS011;4517;49.020;12.066;2023-12-22T04:01:54;29.53;;;27.23;;
8964;SDS011;4517;49.020;12.066;2023-12-22T04:04:22;28.80;;;26.90;;
8964;SDS011;4517;49.020;12.066;2023-12-22T04:06:48;29.53;;;27.43;;
8964;SDS011;4517;49.020;12.066;2023-12-22T04:09:14;31.00;;;28.50;;
8964;SDS011;4517;49.020;12.066;2023-12-22T04:11:40;30.33;;;28.03;;
8964;SDS011;4517;49.020;12.066;2023-12-22T04:14:06;30.30;;;27.80;;
8964;SDS011;4517;49.020;12.066;2023-12-22T04:16:32;31.80;;;28.50;;
8964;SDS011;4517;49.020;12.066;2023-12-22T04:18:58;32.13;;;29.30;;
8964;SDS011;4517;49.020;12.066;2023-12-22T04:21:24;32.60;;;30.10;;
8964;SDS011;4517;49.020;12.066;2023-12-22T04:23:50;30.63;;;28.13;;
8964;SDS011;4517;49.020;12.066;2023-12-22T04:26:16;29.70;;;27.40;;
8964;SDS011;4517;49.020;12.066;2023-12-22T04:28:42;29.27;;;27.17;;
8964;SDS011;4517;49.020;12.066;2023-12-22T04:31:08;30.30;;;27.90;;
8964;SDS011;4517;49.020;12.066;2023-12-22T04:33:34;30.13;;;27.83;;
8964;SDS011;4517;49.020;12.066;2023-12-22T04:35:59;30.40;;;28.10;;
8964;SDS011;4517;49.020;12.066;2023-12-22T04:38:25;30.03;;;27.83;;
8964;SDS011;4517;49.020;12.066;2023-12-22T04:40:51;30.73;;;28.33;;
8964;SDS011;4517;49.020;12.066;2023-12-22T04:43:17;30.63;;;27.70;;
8964;SDS011;4517;49.020;12.066;2023-12-22T04:45:43;29.30;;;27.10;;
8964;SDS011;4517;49.020;12.066;2023-12-22T04:48:09;29.53;;;27.33;;
8964;SDS011;4517;49.020;12.066;2023-12-22T04:50:35;28.17;;;26.10;;
8964;SDS011;4517;49.020;12.066;2023-12-22T04:53:01;30.50;;;28.30;;
8964;SDS011;4517;49.020;12.066;2023-12-22T04:55:27;30.60;;;28.27;;
8964;SDS011;4517;49.020;12.066;2023-12-22T04:57:53;31.03;;;28.73;;
8964;SDS011;4517;49.020;12.066;2023-12-22T05:00:19;30.70;;;28.40;;
8964;SDS011;4517;49.020;12.066;2023-12-22T05:02:45;29.80;;;27.43;;
8964;SDS011;4517;49.020;12.066;2023-12-22T05:05:11;29.60;;;27.40;;
8964;SDS011;4517;49.020;12.066;2023-12-22T05:07:37;29.80;;;27.50;;
8964;SDS011;4517;49.020;12.066;2023-12-22T05:10:03;30.80;;;28.40;;
8964;SDS011;4517;49.020;12.066;2023-12-22T05:12:29;31.13;;;28.73;;
8964;SDS011;4517;49.020;12.066;2023-12-22T05:14:55;31.43;;;28.57;;
8964;SDS011;4517;49.020;12.066;2023-12-22T05:17:21;31.67;;;28.67;;
8964;SDS011;4517;49.020;12.066;2023-12-22T05:19:47;29.63;;;27.43;;
8964;SDS011;4517;49.020;12.066;2023-12-22T05:22:13;32.37;;;29.87;;
8964;SDS011;4517;49.020;12.066;2023-12-22T05:24:39;29.67;;;27.27;;
8964;SDS011;4517;49.020;12.066;2023-12-22T05:27:05;30.00;;;27.50;;
8964;SDS011;4517;49.020;12.066;2023-12-22T05:29:31;27.80;;;25.80;;
8964;SDS011;4517;49.020;12.066;2023-12-22T05:31:57;28.37;;;26.33;;
8964;SDS011;4517;49.020;12.066;2023-12-22T05:34:23;29.90;;;27.70;;
8964;SDS011;4517;49.020;12.066;2023-12-22T05:36:49;29.53;;;27.00;;
8964;SDS011;4517;49.020;12.066;2023-12-22T05:39:15;28.27;;;25.70;;
8964;SDS011;4517;49.020;12.066;2023-12-22T05:41:41;27.27;;;24.97;;
8964;SDS011;4517;49.020;12.066;2023-12-22T05:44:07;27.77;;;25.27;;
8964;SDS011;4517;49.020;12.066;2023-12-22T05:46:36;25.83;;;24.03;;
8964;SDS011;4517;49.020;12.066;2023-12-22T05:49:05;26.17;;;24.37;;
8964;SDS011;4517;49.020;12.066;2023-12-22T05:51:38;25.80;;;23.80;;
8964;SDS011;4517;49.020;12.066;2023-12-22T05:54:05;26.40;;;23.97;;
8964;SDS011;4517;49.020;12.066;2023-12-22T05:56:31;25.27;;;23.17;;
8964;SDS011;4517;49.020;12.066;2023-12-22T05:58:57;26.03;;;24.23;;
8964;SDS011;4517;49.020;12.066;2023-12-22T06:01:23;26.00;;;24.20;;
8964;SDS011;4517;49.020;12.066;2023-12-22T06:03:49;24.90;;;23.07;;
8964;SDS011;4517;49.020;12.066;2023-12-22T06:06:15;24.40;;;22.90;;
8964;SDS011;4517;49.020;12.066;2023-12-22T06:08:41;25.10;;;23.30;;
8964;SDS011;4517;49.020;12.066;2023-12-22T06:11:07;24.93;;;23.33;;
8964;SDS011;4517;49.020;12.066;2023-12-22T06:13:33;24.87;;;23.17;;
8964;SDS011;4517;49.020;12.066;2023-12-22T06:15:59;24.57;;;22.97;;
8964;SDS011;4517;49.020;12.066;2023-12-22T06:18:25;24.90;;;23.10;;
8964;SDS011;4517;49.020;12.066;2023-12-22T06:20:51;25.40;;;23.60;;
8964;SDS011;4517;49.020;12.066;2023-12-22T06:23:17;23.97;;;22.37;;
8964;SDS011;4517;49.020;12.066;2023-12-22T06:25:43;23.60;;;22.00;;
8964;SDS011;4517;49.020;12.066;2023-12-22T06:28:11;24.47;;;22.20;;
8964;SDS011;4517;49.020;12.066;2023-12-22T06:30:37;26.27;;;24.47;;
8964;SDS011;4517;49.020;12.066;2023-12-22T06:33:03;25.20;;;23.30;;
8964;SDS011;4517;49.020;12.066;2023-12-22T06:35:29;26.07;;;24.00;;
8964;SDS011;4517;49.020;12.066;2023-12-22T06:37:56;24.20;;;22.60;;
8964;SDS011;4517;49.020;12.066;2023-12-22T06:40:26;23.33;;;21.63;;
8964;SDS011;4517;49.020;12.066;2023-12-22T06:42:52;24.53;;;22.40;;
8964;SDS011;4517;49.020;12.066;2023-12-22T06:45:18;23.83;;;22.13;;
8964;SDS011;4517;49.020;12.066;2023-12-22T06:47:44;25.30;;;23.50;;
8964;SDS011;4517;49.020;12.066;2023-12-22T06:50:10;23.67;;;22.10;;
8964;SDS011;4517;49.020;12.066;2023-12-22T06:52:36;24.40;;;22.50;;
8964;SDS011;4517;49.020;12.066;2023-12-22T06:55:02;22.90;;;21.23;;
8964;SDS011;4517;49.020;12.066;2023-12-22T06:57:28;23.73;;;21.77;;
8964;SDS011;4517;49.020;12.066;2023-12-22T06:59:53;24.13;;;22.53;;
8964;SDS011;4517;49.020;12.066;2023-12-22T07:02:20;22.80;;;21.40;;
8964;SDS011;4517;49.020;12.066;2023-12-22T07:04:59;25.57;;;23.70;;
8964;SDS011;4517;49.020;12.066;2023-12-22T07:07:27;23.47;;;22.07;;
8964;SDS011;4517;49.020;12.066;2023-12-22T07:09:53;25.97;;;23.97;;
8964;SDS011;4517;49.020;12.066;2023-12-22T07:12:19;26.53;;;24.73;;
8964;SDS011;4517;49.020;12.066;2023-12-22T07:14:45;27.97;;;25.77;;
8964;SDS011;4517;49.020;12.066;2023-12-22T07:17:11;29.30;;;26.90;;
8964;SDS011;4517;49.020;12.066;2023-12-22T07:19:37;31.27;;;28.73;;
8964;SDS011;4517;49.020;12.066;2023-12-22T07:22:03;27.90;;;25.43;;
8964;SDS011;4517;49.020;12.066;2023-12-22T07:24:29;31.37;;;28.60;;
8964;SDS011;4517;49.020;12.066;2023-12-22T07:26:55;27.43;;;25.23;;
8964;SDS011;4517;49.020;12.066;2023-12-22T07:29:21;52.80;;;49.07;;
8964;SDS011;4517;49.020;12.066;2023-12-22T07:31:47;32.83;;;30.57;;
8964;SDS011;4517;49.020;12.066;2023-12-22T07:34:13;31.43;;;29.03;;
8964;SDS011;4517;49.020;12.066;2023-12-22T07:36:40;30.33;;;27.93;;
8964;SDS011;4517;49.020;12.066;2023-12-22T07:39:05;29.20;;;27.03;;
8964;SDS011;4517;49.020;12.066;2023-12-22T07:41:32;31.00;;;28.77;;
8964;SDS011;4517;49.020;12.066;2023-12-22T07:43:58;29.33;;;27.23;;
8964;SDS011;4517;49.020;12.066;2023-12-22T07:46:24;26.63;;;24.73;;
8964;SDS011;4517;49.020;12.066;2023-12-22T07:48:50;28.50;;;26.30;;
8964;SDS011;4517;49.020;12.066;2023-12-22T07:51:16;26.17;;;24.30;;
8964;SDS011;4517;49.020;12.066;2023-12-22T07:53:42;28.27;;;26.27;;
8964;SDS011;4517;49.020;12.066;2023-12-22T07:56:09;27.57;;;25.37;;
8964;SDS011;4517;49.020;12.066;2023-12-22T07:58:35;25.97;;;24.13;;
8964;SDS011;4517;49.020;12.066;2023-12-22T08:01:01;25.83;;;24.13;;
8964;SDS011;4517;49.020;12.066;2023-12-22T08:03:28;27.90;;;25.83;;
8964;SDS011;4517;49.020;12.066;2023-12-22T08:05:54;25.67;;;23.43;;
8964;SDS011;4517;49.020;12.066;2023-12-22T08:08:20;26.67;;;24.80;;
8964;SDS011;4517;49.020;12.066;2023-12-22T08:10:47;26.87;;;25.17;;
8964;SDS011;4517;49.020;12.066;2023-12-22T08:13:13;26.10;;;24.07;;
8964;SDS011;4517;49.020;12.066;2023-12-22T08:15:39;25.20;;;23.10;;
8964;SDS011;4517;49.020;12.066;2023-12-22T08:18:06;27.40;;;25.30;;
8964;SDS011;4517;49.020;12.066;2023-12-22T08:20:32;26.50;;;23.93;;
8964;SDS011;4517;49.020;12.066;2023-12-22T08:22:58;26.67;;;24.63;;
8964;SDS011;4517;49.020;12.066;2023-12-22T08:25:24;27.57;;;25.30;;
8964;SDS011;4517;49.020;12.066;2023-12-22T08:27:50;29.30;;;27.07;;
8964;SDS011;4517;49.020;12.066;2023-12-22T08:30:17;28.40;;;25.60;;
8964;SDS011;4517;49.020;12.066;2023-12-22T08:32:42;27.80;;;25.60;;
8964;SDS011;4517;49.020;12.066;2023-12-22T08:35:08;28.17;;;26.07;;
8964;SDS011;4517;49.020;12.066;2023-12-22T08:37:34;41.27;;;38.27;;
8964;SDS011;4517;49.020;12.066;2023-12-22T08:40:00;32.10;;;29.60;;
8964;SDS011;4517;49.020;12.066;2023-12-22T08:42:26;29.60;;;27.30;;
8964;SDS011;4517;49.020;12.066;2023-12-22T08:44:53;29.10;;;26.73;;
8964;SDS011;4517;49.020;12.066;2023-12-22T08:47:19;31.23;;;28.70;;
8964;SDS011;4517;49.020;12.066;2023-12-22T08:49:45;28.87;;;26.63;;
8964;SDS011;4517;49.020;12.066;2023-12-22T08:52:11;25.80;;;23.70;;
8964;SDS011;4517;49.020;12.066;2023-12-22T08:54:38;29.23;;;27.13;;
8964;SDS011;4517;49.020;12.066;2023-12-22T08:57:04;26.03;;;23.60;;
8964;SDS011;4517;49.020;12.066;2023-12-22T08:59:30;28.80;;;26.60;;
8964;SDS011;4517;49.020;12.066;2023-12-22T09:01:56;30.37;;;28.30;;
8964;SDS011;4517;49.020;12.066;2023-12-22T09:04:22;26.13;;;24.30;;
8964;SDS011;4517;49.020;12.066;2023-12-22T09:06:48;26.03;;;24.23;;
8964;SDS011;4517;49.020;12.066;2023-12-22T09:09:14;26.27;;;24.20;;
8964;SDS011;4517;49.020;12.066;2023-12-22T09:11:40;27.97;;;25.53;;
8964;SDS011;4517;49.020;12.066;2023-12-22T09:14:06;31.27;;;28.43;;
8964;SDS011;4517;49.020;12.066;2023-12-22T09:16:35;29.67;;;27.07;;
8964;SDS011;4517;49.020;12.066;2023-12-22T09:19:01;32.20;;;29.67;;
8964;SDS011;4517;49.020;12.066;2023-12-22T09:21:27;28.80;;;26.20;;
8964;SDS011;4517;49.020;12.066;2023-12-22T09:23:53;33.10;;;30.40;;
8964;SDS011;4517;49.020;12.066;2023-12-22T09:26:19;28.33;;;25.63;;
8964;SDS011;4517;49.020;12.066;2023-12-22T09:28:46;33.20;;;30.40;;
8964;SDS011;4517;49.020;12.066;2023-12-22T09:31:12;33.80;;;31.20;;
8964;SDS011;4517;49.020;12.066;2023-12-22T09:33:38;34.87;;;32.07;;
8964;SDS011;4517;49.020;12.066;2023-12-22T09:36:05;31.43;;;29.00;;
8964;SDS011;4517;49.020;12.066;2023-12-22T09:38:31;32.90;;;30.50;;
8964;SDS011;4517;49.020;12.066;2023-12-22T09:40:57;31.57;;;29.37;;
8964;SDS011;4517;49.020;12.066;2023-12-22T09:43:24;31.07;;;28.50;;
8964;SDS011;4517;49.020;12.066;2023-12-22T09:45:50;26.97;;;24.87;;
8964;SDS011;4517;49.020;12.066;2023-12-22T09:48:17;28.27;;;25.77;;
8964;SDS011;4517;49.020;12.066;2023-12-22T09:50:45;27.17;;;24.83;;
8964;SDS011;4517;49.020;12.066;2023-12-22T09:53:14;28.03;;;25.87;;
8964;SDS011;4517;49.020;12.066;2023-12-22T09:55:42;27.70;;;25.17;;
8964;SDS011;4517;49.020;12.066;2023-12-22T09:58:08;28.30;;;24.63;;
8964;SDS011;4517;49.020;12.066;2023-12-22T10:00:34;25.03;;;23.20;;
8964;SDS011;4517;49.020;12.066;2023-12-22T10:03:02;24.37;;;22.37;;
8964;SDS011;4517;49.020;12.066;2023-12-22T10:05:28;28.07;;;25.40;;
8964;SDS011;4517;49.020;12.066;2023-12-22T10:07:55;27.20;;;25.13;;
8964;SDS011;4517;49.020;12.066;2023-12-22T10:10:21;25.73;;;23.67;;
8964;SDS011;4517;49.020;12.066;2023-12-22T10:12:48;24.13;;;22.33;;
8964;SDS011;4517;49.020;12.066;2023-12-22T10:15:15;24.43;;;22.00;;
8964;SDS011;4517;49.020;12.066;2023-12-22T10:17:43;23.73;;;22.03;;
8964;SDS011;4517;49.020;12.066;2023-12-22T10:20:10;25.10;;;23.20;;
8964;SDS011;4517;49.020;12.066;2023-12-22T10:22:36;24.87;;;22.60;;
8964;SDS011;4517;49.020;12.066;2023-12-22T10:25:02;25.50;;;23.10;;
8964;SDS011;4517;49.020;12.066;2023-12-22T10:27:28;27.30;;;25.23;;
8964;SDS011;4517;49.020;12.066;2023-12-22T10:29:56;25.67;;;23.67;;
8964;SDS011;4517;49.020;12.066;2023-12-22T10:32:22;25.77;;;23.87;;
8964;SDS011;4517;49.020;12.066;2023-12-22T10:34:50;26.10;;;24.30;;
8964;SDS011;4517;49.020;12.066;2023-12-22T10:37:17;30.13;;;27.80;;
8964;SDS011;4517;49.020;12.066;2023-12-22T10:39:43;34.33;;;31.20;;
8964;SDS011;4517;49.020;12.066;2023-12-22T10:42:13;29.93;;;27.87;;
8964;SDS011;4517;49.020;12.066;2023-12-22T10:44:39;27.87;;;25.67;;
8964;SDS011;4517;49.020;12.066;2023-12-22T10:47:06;25.10;;;23.30;;
8964;SDS011;4517;49.020;12.066;2023-12-22T10:49:32;31.10;;;28.47;;
8964;SDS011;4517;49.020;12.066;2023-12-22T10:51:59;32.80;;;30.50;;
8964;SDS011;4517;49.020;12.066;2023-12-22T10:54:25;30.97;;;28.97;;
8964;SDS011;4517;49.020;12.066;2023-12-22T10:56:52;28.93;;;27.00;;
8964;SDS011;4517;49.020;12.066;2023-12-22T10:59:18;33.07;;;30.77;;
8964;SDS011;4517;49.020;12.066;2023-12-22T11:01:44;32.10;;;30.20;;
8964;SDS011;4517;49.020;12.066;2023-12-22T11:04:13;32.97;;;30.77;;
8964;SDS011;4517;49.020;12.066;2023-12-22T11:06:39;29.47;;;27.40;;
8964;SDS011;4517;49.020;12.066;2023-12-22T11:09:07;27.17;;;25.37;;
8964;SDS011;4517;49.020;12.066;2023-12-22T11:11:38;27.77;;;25.77;;
8964;SDS011;4517;49.020;12.066;2023-12-22T11:14:04;28.10;;;26.10;;
8964;SDS011;4517;49.020;12.066;2023-12-22T11:16:31;30.47;;;28.30;;
8964;SDS011;4517;49.020;12.066;2023-12-22T11:19:01;33.90;;;31.33;;
8964;SDS011;4517;49.020;12.066;2023-12-22T11:21:27;38.87;;;36.17;;
8964;SDS011;4517;49.020;12.066;2023-12-22T11:23:54;37.67;;;35.07;;
8964;SDS011;4517;49.020;12.066;2023-12-22T11:26:20;42.10;;;39.10;;
8964;SDS011;4517;49.020;12.066;2023-12-22T11:28:47;44.83;;;41.73;;
8964;SDS011;4517;49.020;12.066;2023-12-22T11:31:14;44.77;;;41.20;;
8964;SDS011;4517;49.020;12.066;2023-12-22T11:33:43;40.77;;;37.83;;
8964;SDS011;4517;49.020;12.066;2023-12-22T11:36:09;40.57;;;37.40;;
8964;SDS011;4517;49.020;12.066;2023-12-22T11:38:36;32.20;;;29.00;;
8964;SDS011;4517;49.020;12.066;2023-12-22T11:41:02;29.10;;;26.23;;
8964;SDS011;4517;49.020;12.066;2023-12-22T11:43:29;28.30;;;26.10;;
8964;SDS011;4517;49.020;12.066;2023-12-22T11:45:55;27.07;;;24.37;;
8964;SDS011;4517;49.020;12.066;2023-12-22T11:48:22;24.63;;;22.70;;
8964;SDS011;4517;49.020;12.066;2023-12-22T11:50:48;26.30;;;24.20;;
8964;SDS011;4517;49.020;12.066;2023-12-22T11:53:21;27.53;;;25.50;;
8964;SDS011;4517;49.020;12.066;2023-12-22T11:56:06;24.87;;;22.83;;
8964;SDS011;4517;49.020;12.066;2023-12-22T11:58:37;23.93;;;22.07;;
8964;SDS011;4517;49.020;12.066;2023-12-22T12:01:05;21.90;;;20.30;;
8964;SDS011;4517;49.020;12.066;2023-12-22T12:03:31;23.20;;;21.50;;
8964;SDS011;4517;49.020;12.066;2023-12-22T12:08:39;25.40;;;23.07;;
8964;SDS011;4517;49.020;12.066;2023-12-22T12:11:05;21.43;;;19.90;;
8964;SDS011;4517;49.020;12.066;2023-12-22T12:13:32;24.20;;;22.40;;
8964;SDS011;4517;49.020;12.066;2023-12-22T12:15:59;42.93;;;40.07;;
8964;SDS011;4517;49.020;12.066;2023-12-22T12:18:29;22.53;;;20.80;;
8964;SDS011;4517;49.020;12.066;2023-12-22T12:20:55;24.83;;;23.13;;
8964;SDS011;4517;49.020;12.066;2023-12-22T12:23:25;24.43;;;22.70;;
8964;SDS011;4517;49.020;12.066;2023-12-22T12:25:51;25.33;;;23.03;;
8964;SDS011;4517;49.020;12.066;2023-12-22T12:28:18;32.13;;;29.73;;
8964;SDS011;4517;49.020;12.066;2023-12-22T12:30:54;25.47;;;23.27;;
8964;SDS011;4517;49.020;12.066;2023-12-22T12:33:22;25.10;;;23.20;;
8964;SDS011;4517;49.020;12.066;2023-12-22T12:35:48;26.43;;;24.50;;
8964;SDS011;4517;49.020;12.066;2023-12-22T12:38:16;27.10;;;25.20;;
8964;SDS011;4517;49.020;12.066;2023-12-22T12:40:43;31.57;;;29.27;;
8964;SDS011;4517;49.020;12.066;2023-12-22T12:43:11;32.33;;;30.13;;
8964;SDS011;4517;49.020;12.066;2023-12-22T12:45:37;33.50;;;31.30;;
8964;SDS011;4517;49.020;12.066;2023-12-22T12:48:03;35.63;;;33.20;;
8964;SDS011;4517;49.020;12.066;2023-12-22T12:50:29;36.20;;;34.00;;
8964;SDS011;4517;49.020;12.066;2023-12-22T12:52:56;36.13;;;34.03;;
8964;SDS011;4517;49.020;12.066;2023-12-22T12:55:23;33.93;;;31.83;;
8964;SDS011;4517;49.020;12.066;2023-12-22T12:57:50;35.57;;;33.37;;
8964;SDS011;4517;49.020;12.066;2023-12-22T13:00:25;36.17;;;33.77;;
8964;SDS011;4517;49.020;12.066;2023-12-22T13:02:53;38.23;;;35.50;;
8964;SDS011;4517;49.020;12.066;2023-12-22T13:05:23;40.97;;;37.77;;
8964;SDS011;4517;49.020;12.066;2023-12-22T13:07:50;40.33;;;37.73;;
8964;SDS011;4517;49.020;12.066;2023-12-22T13:10:19;41.47;;;38.23;;
8964;SDS011;4517;49.020;12.066;2023-12-22T13:12:46;42.97;;;40.27;;
8964;SDS011;4517;49.020;12.066;2023-12-22T13:15:12;41.33;;;38.17;;
8964;SDS011;4517;49.020;12.066;2023-12-22T13:17:38;43.83;;;40.60;;
8964;SDS011;4517;49.020;12.066;2023-12-22T13:20:04;42.33;;;39.33;;
8964;SDS011;4517;49.020;12.066;2023-12-22T13:22:30;40.30;;;36.50;;
8964;SDS011;4517;49.020;12.066;2023-12-22T13:24:56;45.13;;;41.27;;
8964;SDS011;4517;49.020;12.066;2023-12-22T13:27:25;43.73;;;40.03;;
8964;SDS011;4517;49.020;12.066;2023-12-22T13:29:52;42.43;;;39.20;;
8964;SDS011;4517;49.020;12.066;2023-12-22T13:32:19;45.90;;;41.37;;
8964;SDS011;4517;49.020;12.066;2023-12-22T13:34:52;38.10;;;34.70;;
8964;SDS011;4517;49.020;12.066;2023-12-22T13:37:19;35.87;;;33.13;;
8964;SDS011;4517;49.020;12.066;2023-12-22T13:39:45;35.77;;;32.60;;
8964;SDS011;4517;49.020;12.066;2023-12-22T13:42:18;37.30;;;34.60;;
8964;SDS011;4517;49.020;12.066;2023-12-22T13:44:46;39.93;;;33.93;;
8964;SDS011;4517;49.020;12.066;2023-12-22T13:47:16;35.77;;;32.47;;
8964;SDS011;4517;49.020;12.066;2023-12-22T13:49:43;34.73;;;31.70;;
8964;SDS011;4517;49.020;12.066;2023-12-22T13:52:23;31.60;;;28.50;;
8964;SDS011;4517;49.020;12.066;2023-12-22T13:54:50;29.57;;;27.20;;
8964;SDS011;4517;49.020;12.066;2023-12-22T13:57:20;31.30;;;28.37;;
8964;SDS011;4517;49.020;12.066;2023-12-22T13:59:47;32.40;;;29.93;;
8964;SDS011;4517;49.020;12.066;2023-12-22T14:02:12;30.30;;;28.30;;
8964;SDS011;4517;49.020;12.066;2023-12-22T14:04:38;31.47;;;28.60;;
8964;SDS011;4517;49.020;12.066;2023-12-22T14:07:04;31.40;;;28.70;;
8964;SDS011;4517;49.020;12.066;2023-12-22T14:09:30;31.50;;;29.20;;
8964;SDS011;4517;49.020;12.066;2023-12-22T14:11:58;32.37;;;29.83;;
8964;SDS011;4517;49.020;12.066;2023-12-22T14:14:24;33.57;;;31.00;;
8964;SDS011;4517;49.020;12.066;2023-12-22T14:16:50;30.83;;;28.33;;
8964;SDS011;4517;49.020;12.066;2023-12-22T14:19:16;33.50;;;30.77;;
8964;SDS011;4517;49.020;12.066;2023-12-22T14:21:42;35.50;;;32.90;;
8964;SDS011;4517;49.020;12.066;2023-12-22T14:24:08;30.70;;;28.50;;
8964;SDS011;4517;49.020;12.066;2023-12-22T14:26:51;35.83;;;32.27;;
8964;SDS011;4517;49.020;12.066;2023-12-22T14:29:17;37.00;;;33.60;;
8964;SDS011;4517;49.020;12.066;2023-12-22T14:31:42;35.77;;;33.47;;